sensor_id;sensor_type;location;lat;lon;timestamp;pressure;altitude;pressure_sealevel;temperature;humidity
22283;BME280;11310;51.528;21.204;2023-08-06T00:01:46;98779.81;;;19.92;100.00
22283;BME280;11310;51.528;21.204;2023-08-06T00:04:17;98770.50;;;19.96;100.00
22283;BME280;11310;51.528;21.204;2023-08-06T00:06:46;98773.00;;;19.97;100.00
22283;BME280;11310;51.528;21.204;2023-08-06T00:09:15;98758.19;;;19.95;100.00
22283;BME280;11310;51.528;21.204;2023-08-06T00:11:43;98753.03;;;19.93;100.00
22283;BME280;11310;51.528;21.204;2023-08-06T00:14:13;98746.53;;;19.96;100.00
22283;BME280;11310;51.528;21.204;2023-08-06T00:16:44;98743.72;;;19.97;100.00
22283;BME280;11310;51.528;21.204;2023-08-06T00:19:14;98737.41;;;19.98;100.00
22283;BME280;11310;51.528;21.204;2023-08-06T00:21:44;98726.75;;;19.98;100.00
22283;BME280;11310;51.528;21.204;2023-08-06T00:24:12;98718.91;;;19.97;100.00
22283;BME280;11310;51.528;21.204;2023-08-06T00:26:41;98715.59;;;19.95;100.00
22283;BME280;11310;51.528;21.204;2023-08-06T00:29:10;98702.13;;;19.96;100.00
22283;BME280;11310;51.528;21.204;2023-08-06T00:31:39;98693.97;;;19.98;100.00
22283;BME280;11310;51.528;21.204;2023-08-06T00:34:08;98691.47;;;19.96;100.00
22283;BME280;11310;51.528;21.204;2023-08-06T00:36:36;98693.44;;;19.94;100.00
22283;BME280;11310;51.528;21.204;2023-08-06T00:39:07;98687.97;;;19.96;100.00
22283;BME280;11310;51.528;21.204;2023-08-06T00:41:36;98681.66;;;19.97;100.00
22283;BME280;11310;51.528;21.204;2023-08-06T00:44:05;98692.78;;;20.00;100.00
22283;BME280;11310;51.528;21.204;2023-08-06T00:46:34;98685.81;;;19.99;100.00
22283;BME280;11310;51.528;21.204;2023-08-06T00:49:02;98671.50;;;20.00;100.00
22283;BME280;11310;51.528;21.204;2023-08-06T00:51:32;98664.19;;;20.02;100.00
22283;BME280;11310;51.528;21.204;2023-08-06T00:54:03;98662.34;;;20.03;100.00
22283;BME280;11310;51.528;21.204;2023-08-06T00:56:34;98659.03;;;20.01;100.00
22283;BME280;11310;51.528;21.204;2023-08-06T00:59:05;98656.38;;;20.01;100.00
22283;BME280;11310;51.528;21.204;2023-08-06T01:01:34;98664.34;;;20.01;100.00
22283;BME280;11310;51.528;21.204;2023-08-06T01:04:03;98662.19;;;20.04;100.00
22283;BME280;11310;51.528;21.204;2023-08-06T01:06:38;98659.69;;;20.03;100.00
22283;BME280;11310;51.528;21.204;2023-08-06T01:09:18;98655.38;;;20.02;100.00
22283;BME280;11310;51.528;21.204;2023-08-06T01:12:00;98639.38;;;20.02;100.00
22283;BME280;11310;51.528;21.204;2023-08-06T01:14:39;98628.91;;;20.00;100.00
22283;BME280;11310;51.528;21.204;2023-08-06T01:17:14;98624.91;;;20.04;100.00
22283;BME280;11310;51.528;21.204;2023-08-06T01:19:43;98630.25;;;20.04;100.00
22283;BME280;11310;51.528;21.204;2023-08-06T01:22:13;98624.25;;;20.02;100.00
22283;BME280;11310;51.528;21.204;2023-08-06T01:24:45;98616.59;;;19.99;100.00
22283;BME280;11310;51.528;21.204;2023-08-06T01:27:22;98620.09;;;20.00;100.00
22283;BME280;11310;51.528;21.204;2023-08-06T01:29:59;98627.09;;;20.01;100.00
22283;BME280;11310;51.528;21.204;2023-08-06T01:32:33;98633.91;;;20.03;100.00
22283;BME280;11310;51.528;21.204;2023-08-06T01:35:04;98629.44;;;20.04;100.00
22283;BME280;11310;51.528;21.204;2023-08-06T01:37:34;98615.94;;;20.05;100.00
22283;BME280;11310;51.528;21.204;2023-08-06T01:40:06;98607.66;;;20.08;100.00
22283;BME280;11310;51.528;21.204;2023-08-06T01:42:35;98604.31;;;20.06;100.00
22283;BME280;11310;51.528;21.204;2023-08-06T01:45:04;98600.63;;;20.07;100.00
22283;BME280;11310;51.528;21.204;2023-08-06T01:47:33;98599.66;;;20.08;100.00
22283;BME280;11310;51.528;21.204;2023-08-06T01:50:02;98596.00;;;20.09;100.00
22283;BME280;11310;51.528;21.204;2023-08-06T01:52:31;98588.69;;;20.11;100.00
22283;BME280;11310;51.528;21.204;2023-08-06T01:55:01;98594.34;;;20.08;100.00
22283;BME280;11310;51.528;21.204;2023-08-06T01:57:31;98593.13;;;20.03;100.00
22283;BME280;11310;51.528;21.204;2023-08-06T02:00:00;98581.50;;;20.04;100.00
22283;BME280;11310;51.528;21.204;2023-08-06T02:02:38;98580.00;;;20.01;100.00
22283;BME280;11310;51.528;21.204;2023-08-06T02:05:10;98585.50;;;20.00;100.00
22283;BME280;11310;51.528;21.204;2023-08-06T02:07:39;98588.31;;;19.98;100.00
22283;BME280;11310;51.528;21.204;2023-08-06T02:10:09;98592.97;;;19.96;100.00
22283;BME280;11310;51.528;21.204;2023-08-06T02:12:38;98578.97;;;19.94;100.00
22283;BME280;11310;51.528;21.204;2023-08-06T02:15:08;98567.31;;;19.95;100.00
22283;BME280;11310;51.528;21.204;2023-08-06T02:17:37;98552.69;;;19.99;100.00
22283;BME280;11310;51.528;21.204;2023-08-06T02:20:07;98527.91;;;19.99;100.00
22283;BME280;11310;51.528;21.204;2023-08-06T02:22:35;98518.25;;;19.98;100.00
22283;BME280;11310;51.528;21.204;2023-08-06T02:25:05;98528.91;;;19.98;100.00
22283;BME280;11310;51.528;21.204;2023-08-06T02:27:37;98509.28;;;19.99;100.00
22283;BME280;11310;51.528;21.204;2023-08-06T02:30:07;98503.75;;;20.00;100.00
22283;BME280;11310;51.528;21.204;2023-08-06T02:32:35;98501.09;;;20.00;100.00
22283;BME280;11310;51.528;21.204;2023-08-06T02:35:05;98488.63;;;20.01;100.00
22283;BME280;11310;51.528;21.204;2023-08-06T02:37:34;98479.47;;;20.03;100.00
22283;BME280;11310;51.528;21.204;2023-08-06T02:40:04;98466.66;;;20.07;100.00
22283;BME280;11310;51.528;21.204;2023-08-06T02:42:33;98462.19;;;20.07;100.00
22283;BME280;11310;51.528;21.204;2023-08-06T02:45:04;98460.38;;;20.08;100.00
22283;BME280;11310;51.528;21.204;2023-08-06T02:47:34;98458.66;;;20.07;100.00
22283;BME280;11310;51.528;21.204;2023-08-06T02:50:03;98460.19;;;20.09;100.00
22283;BME280;11310;51.528;21.204;2023-08-06T02:52:32;98441.56;;;20.09;100.00
22283;BME280;11310;51.528;21.204;2023-08-06T02:55:01;98437.91;;;20.10;100.00
22283;BME280;11310;51.528;21.204;2023-08-06T02:57:31;98436.22;;;20.09;100.00
22283;BME280;11310;51.528;21.204;2023-08-06T02:59:59;98438.72;;;20.11;100.00
22283;BME280;11310;51.528;21.204;2023-08-06T03:02:30;98438.56;;;20.12;100.00
22283;BME280;11310;51.528;21.204;2023-08-06T03:05:13;98431.44;;;20.13;100.00
22283;BME280;11310;51.528;21.204;2023-08-06T03:07:46;98419.94;;;20.12;100.00
22283;BME280;11310;51.528;21.204;2023-08-06T03:10:20;98415.44;;;20.13;100.00
22283;BME280;11310;51.528;21.204;2023-08-06T03:12:51;98414.59;;;20.12;100.00
22283;BME280;11310;51.528;21.204;2023-08-06T03:15:21;98418.91;;;20.13;100.00
22283;BME280;11310;51.528;21.204;2023-08-06T03:17:55;98418.28;;;20.11;100.00
22283;BME280;11310;51.528;21.204;2023-08-06T03:20:25;98414.94;;;20.09;100.00
22283;BME280;11310;51.528;21.204;2023-08-06T03:22:54;98421.59;;;20.13;100.00
22283;BME280;11310;51.528;21.204;2023-08-06T03:25:23;98408.28;;;20.13;100.00
22283;BME280;11310;51.528;21.204;2023-08-06T03:27:51;98408.28;;;20.13;100.00
22283;BME280;11310;51.528;21.204;2023-08-06T03:30:20;98408.44;;;20.12;100.00
22283;BME280;11310;51.528;21.204;2023-08-06T03:32:52;98400.13;;;20.15;100.00
22283;BME280;11310;51.528;21.204;2023-08-06T03:35:21;98401.78;;;20.16;100.00
22283;BME280;11310;51.528;21.204;2023-08-06T03:37:50;98400.78;;;20.17;100.00
22283;BME280;11310;51.528;21.204;2023-08-06T03:40:19;98399.78;;;20.18;100.00
22283;BME280;11310;51.528;21.204;2023-08-06T03:42:48;98398.63;;;20.20;100.00
22283;BME280;11310;51.528;21.204;2023-08-06T03:45:17;98387.81;;;20.22;100.00
22283;BME280;11310;51.528;21.204;2023-08-06T03:47:46;98385.44;;;20.27;100.00
22283;BME280;11310;51.528;21.204;2023-08-06T03:50:16;98391.25;;;20.30;100.00
22283;BME280;11310;51.528;21.204;2023-08-06T03:52:46;98383.91;;;20.32;100.00
22283;BME280;11310;51.528;21.204;2023-08-06T03:55:15;98380.59;;;20.38;100.00
22283;BME280;11310;51.528;21.204;2023-08-06T03:57:44;98367.13;;;20.32;100.00
22283;BME280;11310;51.528;21.204;2023-08-06T04:00:13;98366.28;;;20.31;100.00
22283;BME280;11310;51.528;21.204;2023-08-06T04:02:42;98365.09;;;20.34;100.00
22283;BME280;11310;51.528;21.204;2023-08-06T04:05:13;98354.63;;;20.32;100.00
22283;BME280;11310;51.528;21.204;2023-08-06T04:07:43;98343.97;;;20.32;100.00
22283;BME280;11310;51.528;21.204;2023-08-06T04:10:13;98348.97;;;20.35;100.00
22283;BME280;11310;51.528;21.204;2023-08-06T04:12:42;98334.63;;;20.36;100.00
22283;BME280;11310;51.528;21.204;2023-08-06T04:15:11;98338.91;;;20.45;100.00
22283;BME280;11310;51.528;21.204;2023-08-06T04:17:40;98326.44;;;20.46;100.00
22283;BME280;11310;51.528;21.204;2023-08-06T04:20:09;98329.75;;;20.48;100.00
22283;BME280;11310;51.528;21.204;2023-08-06T04:22:39;98327.75;;;20.50;100.00
22283;BME280;11310;51.528;21.204;2023-08-06T04:25:09;98324.09;;;20.51;100.00
22283;BME280;11310;51.528;21.204;2023-08-06T04:27:38;98327.16;;;20.70;100.00
22283;BME280;11310;51.528;21.204;2023-08-06T04:30:11;98331.13;;;20.74;100.00
22283;BME280;11310;51.528;21.204;2023-08-06T04:32:42;98334.44;;;20.76;100.00
22283;BME280;11310;51.528;21.204;2023-08-06T04:35:11;98328.75;;;20.79;100.00
22283;BME280;11310;51.528;21.204;2023-08-06T04:37:40;98327.78;;;20.72;100.00
22283;BME280;11310;51.528;21.204;2023-08-06T04:40:12;98316.19;;;20.65;100.00
22283;BME280;11310;51.528;21.204;2023-08-06T04:42:40;98317.47;;;20.69;100.00
22283;BME280;11310;51.528;21.204;2023-08-06T04:45:10;98316.31;;;20.72;100.00
22283;BME280;11310;51.528;21.204;2023-08-06T04:47:39;98318.59;;;20.75;100.00
22283;BME280;11310;51.528;21.204;2023-08-06T04:50:08;98317.25;;;20.79;100.00
22283;BME280;11310;51.528;21.204;2023-08-06T04:52:37;98311.75;;;20.80;100.00
22283;BME280;11310;51.528;21.204;2023-08-06T04:55:06;98314.41;;;20.80;100.00
22283;BME280;11310;51.528;21.204;2023-08-06T04:57:36;98328.75;;;20.79;100.00
22283;BME280;11310;51.528;21.204;2023-08-06T05:00:06;98318.09;;;20.79;100.00
22283;BME280;11310;51.528;21.204;2023-08-06T05:02:34;98303.75;;;20.80;100.00
22283;BME280;11310;51.528;21.204;2023-08-06T05:05:06;98305.41;;;20.81;100.00
22283;BME280;11310;51.528;21.204;2023-08-06T05:07:35;98300.94;;;20.82;100.00
22283;BME280;11310;51.528;21.204;2023-08-06T05:10:04;98299.06;;;20.91;100.00
22283;BME280;11310;51.528;21.204;2023-08-06T05:12:33;98305.34;;;20.98;100.00
22283;BME280;11310;51.528;21.204;2023-08-06T05:15:04;98292.66;;;21.00;100.00
22283;BME280;11310;51.528;21.204;2023-08-06T05:17:32;98277.97;;;21.04;100.00
22283;BME280;11310;51.528;21.204;2023-08-06T05:20:01;98280.94;;;21.09;100.00
22283;BME280;11310;51.528;21.204;2023-08-06T05:22:30;98275.88;;;21.14;100.00
22283;BME280;11310;51.528;21.204;2023-08-06T05:24:59;98274.16;;;21.21;100.00
22283;BME280;11310;51.528;21.204;2023-08-06T05:27:28;98268.94;;;21.27;100.00
22283;BME280;11310;51.528;21.204;2023-08-06T05:29:57;98272.19;;;21.37;100.00
22283;BME280;11310;51.528;21.204;2023-08-06T05:32:27;98269.44;;;21.45;100.00
22283;BME280;11310;51.528;21.204;2023-08-06T05:34:56;98272.19;;;21.52;100.00
22283;BME280;11310;51.528;21.204;2023-08-06T05:37:25;98272.13;;;21.60;100.00
22283;BME280;11310;51.528;21.204;2023-08-06T05:39:53;98273.59;;;21.62;100.00
22283;BME280;11310;51.528;21.204;2023-08-06T05:42:22;98269.44;;;21.60;100.00
22283;BME280;11310;51.528;21.204;2023-08-06T05:44:51;98271.19;;;21.67;100.00
22283;BME280;11310;51.528;21.204;2023-08-06T05:47:20;98261.94;;;21.78;100.00
22283;BME280;11310;51.528;21.204;2023-08-06T05:49:50;98258.00;;;21.88;100.00
22283;BME280;11310;51.528;21.204;2023-08-06T05:52:19;98258.09;;;22.09;100.00
22283;BME280;11310;51.528;21.204;2023-08-06T05:54:47;98253.47;;;22.18;100.00
22283;BME280;11310;51.528;21.204;2023-08-06T05:57:16;98255.47;;;22.16;100.00
22283;BME280;11310;51.528;21.204;2023-08-06T05:59:45;98252.72;;;22.24;100.00
22283;BME280;11310;51.528;21.204;2023-08-06T06:02:13;98240.53;;;22.36;100.00
22283;BME280;11310;51.528;21.204;2023-08-06T06:04:42;98239.69;;;22.50;100.00
22283;BME280;11310;51.528;21.204;2023-08-06T06:07:12;98235.97;;;22.65;100.00
22283;BME280;11310;51.528;21.204;2023-08-06T06:09:41;98233.56;;;22.70;100.00
22283;BME280;11310;51.528;21.204;2023-08-06T06:12:10;98231.91;;;22.69;100.00
22283;BME280;11310;51.528;21.204;2023-08-06T06:14:39;98234.19;;;22.72;100.00
22283;BME280;11310;51.528;21.204;2023-08-06T06:17:08;98235.28;;;22.78;100.00
22283;BME280;11310;51.528;21.204;2023-08-06T06:19:36;98221.53;;;22.81;100.00
22283;BME280;11310;51.528;21.204;2023-08-06T06:22:05;98225.31;;;22.93;100.00
22283;BME280;11310;51.528;21.204;2023-08-06T06:24:35;98233.41;;;22.99;100.00
22283;BME280;11310;51.528;21.204;2023-08-06T06:27:04;98228.72;;;23.01;100.00
22283;BME280;11310;51.528;21.204;2023-08-06T06:29:33;98237.06;;;23.13;100.00
22283;BME280;11310;51.528;21.204;2023-08-06T06:32:02;98229.34;;;23.24;100.00
22283;BME280;11310;51.528;21.204;2023-08-06T06:34:31;98234.13;;;23.29;100.00
22283;BME280;11310;51.528;21.204;2023-08-06T06:37:00;98235.56;;;23.31;100.00
22283;BME280;11310;51.528;21.204;2023-08-06T06:39:28;98242.84;;;23.37;100.00
22283;BME280;11310;51.528;21.204;2023-08-06T06:41:58;98240.97;;;23.38;100.00
22283;BME280;11310;51.528;21.204;2023-08-06T06:44:35;98237.13;;;23.47;100.00
22283;BME280;11310;51.528;21.204;2023-08-06T06:47:04;98234.78;;;23.65;100.00
22283;BME280;11310;51.528;21.204;2023-08-06T06:49:33;98224.63;;;23.88;100.00
22283;BME280;11310;51.528;21.204;2023-08-06T06:52:01;98226.84;;;24.12;100.00
22283;BME280;11310;51.528;21.204;2023-08-06T06:54:30;98220.34;;;24.34;100.00
22283;BME280;11310;51.528;21.204;2023-08-06T06:57:00;98223.47;;;24.44;100.00
22283;BME280;11310;51.528;21.204;2023-08-06T06:59:29;98215.44;;;24.50;100.00
22283;BME280;11310;51.528;21.204;2023-08-06T07:01:58;98218.38;;;24.62;100.00
22283;BME280;11310;51.528;21.204;2023-08-06T07:04:27;98211.41;;;24.67;100.00
22283;BME280;11310;51.528;21.204;2023-08-06T07:06:56;98208.09;;;24.72;100.00
22283;BME280;11310;51.528;21.204;2023-08-06T07:09:25;98196.56;;;24.78;100.00
22283;BME280;11310;51.528;21.204;2023-08-06T07:11:53;98204.41;;;24.92;100.00
22283;BME280;11310;51.528;21.204;2023-08-06T07:14:25;98200.69;;;24.87;100.00
22283;BME280;11310;51.528;21.204;2023-08-06T07:16:54;98193.66;;;24.92;100.00
22283;BME280;11310;51.528;21.204;2023-08-06T07:19:23;98194.09;;;25.02;100.00
22283;BME280;11310;51.528;21.204;2023-08-06T07:21:52;98193.69;;;25.12;100.00
22283;BME280;11310;51.528;21.204;2023-08-06T07:24:23;98192.84;;;25.18;100.00
22283;BME280;11310;51.528;21.204;2023-08-06T07:26:52;98201.97;;;25.30;100.00
22283;BME280;11310;51.528;21.204;2023-08-06T07:29:21;98196.59;;;25.30;100.00
22283;BME280;11310;51.528;21.204;2023-08-06T07:31:51;98201.38;;;25.28;100.00
22283;BME280;11310;51.528;21.204;2023-08-06T07:34:20;98206.94;;;25.39;100.00
22283;BME280;11310;51.528;21.204;2023-08-06T07:36:48;98191.00;;;25.51;100.00
22283;BME280;11310;51.528;21.204;2023-08-06T07:39:17;98192.41;;;25.73;100.00
22283;BME280;11310;51.528;21.204;2023-08-06T07:41:46;98190.50;;;25.86;100.00
22283;BME280;11310;51.528;21.204;2023-08-06T07:44:14;98181.97;;;26.09;100.00
22283;BME280;11310;51.528;21.204;2023-08-06T07:46:43;98178.16;;;26.29;100.00
22283;BME280;11310;51.528;21.204;2023-08-06T07:49:13;98185.69;;;26.52;100.00
22283;BME280;11310;51.528;21.204;2023-08-06T07:51:43;98163.97;;;26.53;100.00
22283;BME280;11310;51.528;21.204;2023-08-06T07:54:14;98185.38;;;26.73;100.00
22283;BME280;11310;51.528;21.204;2023-08-06T07:56:43;98177.47;;;26.78;100.00
22283;BME280;11310;51.528;21.204;2023-08-06T07:59:12;98174.38;;;27.05;100.00
22283;BME280;11310;51.528;21.204;2023-08-06T08:01:41;98170.16;;;27.16;100.00
22283;BME280;11310;51.528;21.204;2023-08-06T08:04:10;98173.34;;;27.31;100.00
22283;BME280;11310;51.528;21.204;2023-08-06T08:06:41;98170.38;;;27.39;100.00
22283;BME280;11310;51.528;21.204;2023-08-06T08:09:10;98172.47;;;27.37;100.00
22283;BME280;11310;51.528;21.204;2023-08-06T08:11:41;98164.38;;;27.37;100.00
22283;BME280;11310;51.528;21.204;2023-08-06T08:14:10;98162.19;;;27.52;100.00
22283;BME280;11310;51.528;21.204;2023-08-06T08:16:38;98160.53;;;27.69;100.00
22283;BME280;11310;51.528;21.204;2023-08-06T08:19:07;98156.06;;;27.99;100.00
22283;BME280;11310;51.528;21.204;2023-08-06T08:21:36;98160.38;;;28.18;100.00
22283;BME280;11310;51.528;21.204;2023-08-06T08:24:07;98156.53;;;28.25;100.00
22283;BME280;11310;51.528;21.204;2023-08-06T08:26:36;98160.88;;;28.26;100.00
22283;BME280;11310;51.528;21.204;2023-08-06T08:29:05;98153.41;;;28.28;100.00
22283;BME280;11310;51.528;21.204;2023-08-06T08:31:34;98144.75;;;28.38;100.00
22283;BME280;11310;51.528;21.204;2023-08-06T08:34:06;98146.34;;;28.46;100.00
22283;BME280;11310;51.528;21.204;2023-08-06T08:36:35;98139.81;;;28.53;100.00
22283;BME280;11310;51.528;21.204;2023-08-06T08:39:04;98142.28;;;28.55;100.00
22283;BME280;11310;51.528;21.204;2023-08-06T08:41:36;98140.50;;;28.60;100.00
22283;BME280;11310;51.528;21.204;2023-08-06T08:44:08;98140.78;;;28.70;100.00
22283;BME280;11310;51.528;21.204;2023-08-06T08:46:38;98142.38;;;28.89;100.00
22283;BME280;11310;51.528;21.204;2023-08-06T08:49:08;98143.22;;;29.13;100.00
22283;BME280;11310;51.528;21.204;2023-08-06T08:51:38;98136.66;;;29.20;100.00
22283;BME280;11310;51.528;21.204;2023-08-06T08:54:08;98129.25;;;29.39;100.00
22283;BME280;11310;51.528;21.204;2023-08-06T08:56:40;98124.56;;;29.23;100.00
22283;BME280;11310;51.528;21.204;2023-08-06T08:59:09;98124.81;;;29.21;100.00
22283;BME280;11310;51.528;21.204;2023-08-06T09:01:40;98124.94;;;29.38;100.00
22283;BME280;11310;51.528;21.204;2023-08-06T09:04:10;98131.13;;;29.38;100.00
22283;BME280;11310;51.528;21.204;2023-08-06T09:06:41;98135.38;;;29.46;100.00
22283;BME280;11310;51.528;21.204;2023-08-06T09:09:16;98129.84;;;29.41;100.00
22283;BME280;11310;51.528;21.204;2023-08-06T09:11:47;98115.41;;;29.47;100.00
22283;BME280;11310;51.528;21.204;2023-08-06T09:14:18;98124.56;;;29.69;99.46
22283;BME280;11310;51.528;21.204;2023-08-06T09:16:48;98109.59;;;29.89;99.19
22283;BME280;11310;51.528;21.204;2023-08-06T09:19:17;98116.38;;;30.03;97.37
22283;BME280;11310;51.528;21.204;2023-08-06T09:21:46;98116.69;;;30.18;95.41
22283;BME280;11310;51.528;21.204;2023-08-06T09:24:16;98108.50;;;30.13;94.03
22283;BME280;11310;51.528;21.204;2023-08-06T09:26:47;98105.09;;;29.95;94.63
22283;BME280;11310;51.528;21.204;2023-08-06T09:29:15;98119.41;;;29.67;94.98
22283;BME280;11310;51.528;21.204;2023-08-06T09:31:46;98106.00;;;29.49;97.31
22283;BME280;11310;51.528;21.204;2023-08-06T09:34:16;98109.63;;;29.32;97.04
22283;BME280;11310;51.528;21.204;2023-08-06T09:36:47;98109.53;;;29.15;99.87
22283;BME280;11310;51.528;21.204;2023-08-06T09:39:17;98106.47;;;29.00;100.00
22283;BME280;11310;51.528;21.204;2023-08-06T09:41:48;98098.03;;;29.08;99.51
22283;BME280;11310;51.528;21.204;2023-08-06T09:44:17;98098.47;;;29.51;98.43
22283;BME280;11310;51.528;21.204;2023-08-06T09:46:50;98090.22;;;29.69;94.75
22283;BME280;11310;51.528;21.204;2023-08-06T09:49:21;98096.81;;;29.50;95.35
22283;BME280;11310;51.528;21.204;2023-08-06T09:51:51;98093.06;;;29.28;96.33
22283;BME280;11310;51.528;21.204;2023-08-06T09:54:24;98088.03;;;29.09;97.83
22283;BME280;11310;51.528;21.204;2023-08-06T09:56:56;98095.56;;;29.30;96.50
22283;BME280;11310;51.528;21.204;2023-08-06T09:59:26;98090.38;;;29.63;98.11
22283;BME280;11310;51.528;21.204;2023-08-06T10:01:55;98090.88;;;29.99;94.85
22283;BME280;11310;51.528;21.204;2023-08-06T10:04:24;98089.81;;;30.28;92.11
22283;BME280;11310;51.528;21.204;2023-08-06T10:07:04;98079.28;;;30.15;93.72
22283;BME280;11310;51.528;21.204;2023-08-06T10:09:33;98088.91;;;30.11;93.70
22283;BME280;11310;51.528;21.204;2023-08-06T10:12:04;98077.38;;;30.27;92.82
22283;BME280;11310;51.528;21.204;2023-08-06T10:14:35;98078.09;;;30.11;93.49
22283;BME280;11310;51.528;21.204;2023-08-06T10:17:05;98077.97;;;29.78;95.09
22283;BME280;11310;51.528;21.204;2023-08-06T10:19:35;98082.31;;;29.79;95.55
22283;BME280;11310;51.528;21.204;2023-08-06T10:22:11;98077.66;;;30.03;96.47
22283;BME280;11310;51.528;21.204;2023-08-06T10:24:48;98074.00;;;30.37;93.10
22283;BME280;11310;51.528;21.204;2023-08-06T10:27:28;98071.50;;;30.63;89.53
22283;BME280;11310;51.528;21.204;2023-08-06T10:33:01;98065.94;;;31.19;89.45
22283;BME280;11310;51.528;21.204;2023-08-06T10:35:31;98059.09;;;31.33;87.91
22283;BME280;11310;51.528;21.204;2023-08-06T10:38:03;98053.13;;;31.31;87.09
22283;BME280;11310;51.528;21.204;2023-08-06T10:40:33;98048.69;;;31.25;88.90
22283;BME280;11310;51.528;21.204;2023-08-06T10:43:04;98035.44;;;31.45;86.75
22283;BME280;11310;51.528;21.204;2023-08-06T10:45:36;98035.84;;;31.59;85.33
22283;BME280;11310;51.528;21.204;2023-08-06T10:48:05;98042.47;;;31.68;85.90
22283;BME280;11310;51.528;21.204;2023-08-06T10:50:34;98036.47;;;31.44;86.20
22283;BME280;11310;51.528;21.204;2023-08-06T10:53:06;98026.84;;;31.15;86.61
22283;BME280;11310;51.528;21.204;2023-08-06T10:55:35;98027.84;;;31.26;86.89
22283;BME280;11310;51.528;21.204;2023-08-06T10:58:07;98010.00;;;31.51;86.63
22283;BME280;11310;51.528;21.204;2023-08-06T11:00:36;98012.94;;;31.71;84.40
22283;BME280;11310;51.528;21.204;2023-08-06T11:03:05;98006.22;;;31.95;84.41
22283;BME280;11310;51.528;21.204;2023-08-06T11:05:34;98001.50;;;32.12;83.89
22283;BME280;11310;51.528;21.204;2023-08-06T11:08:03;97994.63;;;31.78;83.39
22283;BME280;11310;51.528;21.204;2023-08-06T11:10:36;97989.81;;;31.64;83.74
22283;BME280;11310;51.528;21.204;2023-08-06T11:13:17;97974.41;;;31.91;84.13
22283;BME280;11310;51.528;21.204;2023-08-06T11:15:47;97974.38;;;32.17;82.51
22283;BME280;11310;51.528;21.204;2023-08-06T11:18:15;97974.91;;;32.41;83.85
22283;BME280;11310;51.528;21.204;2023-08-06T11:20:45;97972.72;;;32.38;82.37
22283;BME280;11310;51.528;21.204;2023-08-06T11:23:14;97969.25;;;31.89;83.61
22283;BME280;11310;51.528;21.204;2023-08-06T11:25:44;97972.63;;;31.32;85.16
22283;BME280;11310;51.528;21.204;2023-08-06T11:28:13;97962.53;;;30.56;86.79
22283;BME280;11310;51.528;21.204;2023-08-06T11:30:44;97956.78;;;30.03;89.18
22283;BME280;11310;51.528;21.204;2023-08-06T11:33:13;97951.94;;;29.61;91.19
22283;BME280;11310;51.528;21.204;2023-08-06T11:35:42;97940.16;;;29.27;93.78
22283;BME280;11310;51.528;21.204;2023-08-06T11:38:13;97954.03;;;28.96;94.00
22283;BME280;11310;51.528;21.204;2023-08-06T11:40:44;97972.84;;;28.68;96.15
22283;BME280;11310;51.528;21.204;2023-08-06T11:43:13;97983.63;;;28.45;97.33
22283;BME280;11310;51.528;21.204;2023-08-06T11:45:44;97982.28;;;28.24;99.09
22283;BME280;11310;51.528;21.204;2023-08-06T11:48:13;97987.59;;;28.01;100.00
22283;BME280;11310;51.528;21.204;2023-08-06T11:50:42;98007.38;;;27.84;100.00
22283;BME280;11310;51.528;21.204;2023-08-06T11:53:12;98012.16;;;27.64;98.94
22283;BME280;11310;51.528;21.204;2023-08-06T11:55:42;98026.69;;;27.45;99.01
22283;BME280;11310;51.528;21.204;2023-08-06T11:58:11;98051.63;;;27.22;99.09
22283;BME280;11310;51.528;21.204;2023-08-06T12:00:40;98037.81;;;26.94;100.00
22283;BME280;11310;51.528;21.204;2023-08-06T12:03:10;98013.63;;;26.70;99.96
22283;BME280;11310;51.528;21.204;2023-08-06T12:05:39;98040.28;;;26.47;100.00
22283;BME280;11310;51.528;21.204;2023-08-06T12:08:09;98031.91;;;26.55;99.91
22283;BME280;11310;51.528;21.204;2023-08-06T12:10:42;98037.28;;;26.55;100.00
22283;BME280;11310;51.528;21.204;2023-08-06T12:13:11;98046.06;;;26.44;100.00
22283;BME280;11310;51.528;21.204;2023-08-06T12:15:40;98038.78;;;26.26;100.00
22283;BME280;11310;51.528;21.204;2023-08-06T12:18:11;98039.72;;;26.07;100.00
22283;BME280;11310;51.528;21.204;2023-08-06T12:20:40;98038.34;;;25.92;100.00
22283;BME280;11310;51.528;21.204;2023-08-06T12:23:09;98048.94;;;25.80;100.00
22283;BME280;11310;51.528;21.204;2023-08-06T12:25:44;98034.56;;;25.62;100.00
22283;BME280;11310;51.528;21.204;2023-08-06T12:28:13;98030.09;;;25.43;100.00
22283;BME280;11310;51.528;21.204;2023-08-06T12:30:42;98028.09;;;25.32;100.00
22283;BME280;11310;51.528;21.204;2023-08-06T12:33:14;98029.91;;;25.25;100.00
22283;BME280;11310;51.528;21.204;2023-08-06T12:35:43;98021.69;;;25.20;100.00
22283;BME280;11310;51.528;21.204;2023-08-06T12:38:11;98013.63;;;25.33;100.00
22283;BME280;11310;51.528;21.204;2023-08-06T12:40:40;98021.81;;;25.51;100.00
22283;BME280;11310;51.528;21.204;2023-08-06T12:43:10;98020.72;;;25.65;100.00
22283;BME280;11310;51.528;21.204;2023-08-06T12:45:38;98011.94;;;25.82;100.00
22283;BME280;11310;51.528;21.204;2023-08-06T12:48:07;98007.69;;;26.06;100.00
22283;BME280;11310;51.528;21.204;2023-08-06T12:50:37;98012.84;;;26.32;100.00
22283;BME280;11310;51.528;21.204;2023-08-06T12:53:06;98011.69;;;26.46;100.00
22283;BME280;11310;51.528;21.204;2023-08-06T12:55:35;97994.72;;;26.52;100.00
22283;BME280;11310;51.528;21.204;2023-08-06T12:58:04;98002.06;;;26.63;100.00
22283;BME280;11310;51.528;21.204;2023-08-06T13:00:32;98002.44;;;26.66;100.00